createdAt,value
2022-12-18T00:02:25.568Z,86.85
2022-12-18T00:04:52.144Z,92.68
2022-12-18T00:07:18.609Z,88.57
2022-12-18T00:09:45.155Z,96.10
2022-12-18T00:14:45.502Z,82.80
2022-12-18T00:17:12.254Z,76.18
2022-12-18T00:19:38.726Z,88.80
2022-12-18T00:22:05.982Z,91.88
2022-12-18T00:24:34.767Z,99.75
2022-12-18T00:27:01.257Z,91.65
2022-12-18T00:29:27.773Z,85.10
2022-12-18T00:31:54.424Z,81.45
2022-12-18T00:34:20.916Z,83.35
2022-12-18T00:36:49.013Z,71.85
2022-12-18T00:39:15.516Z,84.05
2022-12-18T00:42:00.692Z,87.18
2022-12-18T00:44:27.284Z,82.10
2022-12-18T00:46:56.602Z,89.82
2022-12-18T00:49:23.070Z,88.80
2022-12-18T00:51:49.543Z,85.55
2022-12-18T00:54:16.802Z,86.68
2022-12-18T00:56:49.413Z,93.13
2022-12-18T00:59:18.586Z,96.00
2022-12-18T01:01:45.836Z,91.55
2022-12-18T01:04:12.620Z,93.38
2022-12-18T01:06:39.127Z,107.93
2022-12-18T01:09:06.782Z,79.63
2022-12-18T01:11:33.313Z,77.38
2022-12-18T01:14:02.908Z,75.32
2022-12-18T01:16:29.511Z,80.10
2022-12-18T01:18:56.323Z,77.07
2022-12-18T01:21:24.531Z,74.07
2022-12-18T01:23:58.482Z,88.03
2022-12-18T01:26:26.079Z,70.40
2022-12-18T01:28:52.992Z,92.43
2022-12-18T01:31:22.065Z,87.20
2022-12-18T01:33:52.720Z,84.63
2022-12-18T01:36:22.694Z,86.05
2022-12-18T01:38:50.201Z,84.20
2022-12-18T01:41:20.124Z,89.40
2022-12-18T01:43:58.454Z,84.50
2022-12-18T01:46:28.655Z,87.90
2022-12-18T01:49:00.586Z,94.72
2022-12-18T01:51:30.638Z,82.97
2022-12-18T01:53:58.437Z,83.63
2022-12-18T01:56:25.124Z,88.07
2022-12-18T01:59:12.738Z,89.95
2022-12-18T02:01:39.649Z,79.88
2022-12-18T02:04:26.652Z,91.90
2022-12-18T02:07:14.269Z,82.32
2022-12-18T02:10:04.360Z,72.75
2022-12-18T02:12:57.438Z,84.38
2022-12-18T02:15:40.162Z,92.07
2022-12-18T02:18:14.843Z,79.93
2022-12-18T02:21:01.979Z,82.45
2022-12-18T02:24:10.654Z,91.38
2022-12-18T02:26:43.567Z,99.22
2022-12-18T02:29:15.198Z,97.60
2022-12-18T02:31:51.321Z,92.25
2022-12-18T02:34:20.559Z,87.63
2022-12-18T02:36:49.490Z,98.53
2022-12-18T02:39:16.892Z,85.93
2022-12-18T02:41:43.624Z,84.45
2022-12-18T02:44:14.408Z,88.57
2022-12-18T02:46:45.250Z,87.50
2022-12-18T02:49:31.371Z,98.22
2022-12-18T02:52:19.310Z,76.25
2022-12-18T02:55:13.216Z,79.90
2022-12-18T02:58:00.232Z,84.47
2022-12-18T03:00:38.068Z,94.75
2022-12-18T03:03:12.826Z,74.82
2022-12-18T03:05:51.204Z,79.93
2022-12-18T03:08:28.628Z,77.15
2022-12-18T03:11:02.319Z,80.00
2022-12-18T03:13:40.966Z,72.25
2022-12-18T03:16:12.451Z,71.07
2022-12-18T03:21:12.661Z,61.97
2022-12-18T03:23:48.231Z,62.28
2022-12-18T03:26:19.050Z,63.53
2022-12-18T03:28:57.377Z,64.93
2022-12-18T03:31:27.281Z,58.28
2022-12-18T03:33:58.522Z,66.43
2022-12-18T03:36:25.773Z,67.63
2022-12-18T03:38:52.633Z,60.28
2022-12-18T03:41:35.476Z,57.63
2022-12-18T03:44:17.334Z,55.28
2022-12-18T03:47:02.755Z,57.58
2022-12-18T03:49:41.094Z,53.40
2022-12-18T03:52:14.030Z,52.85
2022-12-18T03:54:43.865Z,62.42
2022-12-18T03:57:23.924Z,66.10
2022-12-18T03:59:55.501Z,61.72
2022-12-18T04:02:24.590Z,54.90
2022-12-18T04:04:57.083Z,67.50
2022-12-18T04:07:25.180Z,55.85
2022-12-18T04:09:54.724Z,60.95
2022-12-18T04:12:21.388Z,52.33
2022-12-18T04:14:48.023Z,55.08
2022-12-18T04:17:14.660Z,57.60
2022-12-18T04:19:41.297Z,49.00
2022-12-18T04:22:10.193Z,50.47
2022-12-18T04:24:37.275Z,45.95
2022-12-18T04:27:05.000Z,44.42
2022-12-18T04:29:35.931Z,57.63
2022-12-18T04:32:02.711Z,60.28
2022-12-18T04:34:29.542Z,51.88
2022-12-18T04:36:56.101Z,53.72
2022-12-18T04:39:22.992Z,63.22
2022-12-18T04:41:49.450Z,56.83
2022-12-18T04:44:16.010Z,54.95
2022-12-18T04:46:43.315Z,54.05
2022-12-18T04:49:11.392Z,55.08
2022-12-18T04:51:38.487Z,60.78
2022-12-18T04:54:05.106Z,51.22
2022-12-18T04:56:32.259Z,54.42
2022-12-18T04:58:58.860Z,49.67
2022-12-18T05:01:31.006Z,42.92
2022-12-18T05:04:01.130Z,51.22
2022-12-18T05:06:27.839Z,56.42
2022-12-18T05:08:54.551Z,51.70
2022-12-18T05:11:21.039Z,54.78
2022-12-18T05:13:47.602Z,49.92
2022-12-18T05:16:15.501Z,50.80
2022-12-18T05:18:42.537Z,57.33
2022-12-18T05:21:09.329Z,50.78
2022-12-18T05:23:37.219Z,53.95
2022-12-18T05:26:06.907Z,49.88
2022-12-18T05:28:35.518Z,50.55
2022-12-18T05:31:04.554Z,49.13
2022-12-18T05:33:34.806Z,50.72
2022-12-18T05:36:08.853Z,44.17
2022-12-18T05:38:38.034Z,48.63
2022-12-18T05:41:05.431Z,49.15
2022-12-18T05:43:34.331Z,45.30
2022-12-18T05:46:05.798Z,39.22
2022-12-18T05:48:32.602Z,45.13
2022-12-18T05:51:06.205Z,39.85
2022-12-18T05:53:35.518Z,41.63
2022-12-18T05:56:04.505Z,50.15
2022-12-18T05:58:32.338Z,41.17
2022-12-18T06:01:06.662Z,39.72
2022-12-18T06:03:34.169Z,48.25
2022-12-18T06:06:01.007Z,50.30
2022-12-18T06:08:27.818Z,44.47
2022-12-18T06:10:57.576Z,38.85
2022-12-18T06:13:24.415Z,42.53
2022-12-18T06:15:51.067Z,47.38
2022-12-18T06:18:17.634Z,48.35
2022-12-18T06:20:55.772Z,41.97
2022-12-18T06:23:22.445Z,54.10
2022-12-18T06:25:49.128Z,38.08
2022-12-18T06:28:16.000Z,41.92
2022-12-18T06:30:47.301Z,44.05
2022-12-18T06:33:13.965Z,45.88
2022-12-18T06:35:40.714Z,44.33
2022-12-18T06:38:07.316Z,39.20
2022-12-18T06:40:34.669Z,41.40
2022-12-18T06:43:01.297Z,41.03
2022-12-18T06:45:28.075Z,45.53
2022-12-18T06:47:55.074Z,46.72
2022-12-18T06:50:21.627Z,49.13
2022-12-18T06:52:48.289Z,52.42
2022-12-18T06:55:15.122Z,44.90
2022-12-18T06:57:41.781Z,39.20
2022-12-18T07:00:08.903Z,44.17
2022-12-18T07:02:35.792Z,36.13
2022-12-18T07:05:07.499Z,43.33
2022-12-18T07:07:37.039Z,40.85
2022-12-18T07:10:03.980Z,47.33
2022-12-18T07:12:30.691Z,49.47
2022-12-18T07:14:57.200Z,40.92
2022-12-18T07:17:23.779Z,45.35
2022-12-18T07:19:50.448Z,44.53
2022-12-18T07:22:17.446Z,51.70
2022-12-18T07:24:44.159Z,47.22
2022-12-18T07:27:10.869Z,49.50
2022-12-18T07:29:37.549Z,43.25
2022-12-18T07:32:10.429Z,48.83
2022-12-18T07:34:37.392Z,44.80
2022-12-18T07:37:04.134Z,48.33
2022-12-18T07:39:30.703Z,45.80
2022-12-18T07:42:15.813Z,46.72
2022-12-18T07:44:42.473Z,45.55
2022-12-18T07:47:11.997Z,37.90
2022-12-18T07:49:41.145Z,40.25
2022-12-18T07:52:07.856Z,43.08
2022-12-18T07:54:34.756Z,43.10
2022-12-18T07:57:01.456Z,44.75
2022-12-18T07:59:28.183Z,41.78
2022-12-18T08:01:54.994Z,42.13
2022-12-18T08:04:21.817Z,42.67
2022-12-18T08:06:48.581Z,47.00
2022-12-18T08:09:18.002Z,48.38
2022-12-18T08:11:44.936Z,39.80
2022-12-18T08:14:11.627Z,45.22
2022-12-18T08:16:38.531Z,44.65
2022-12-18T08:19:05.351Z,38.40
2022-12-18T08:21:32.667Z,45.30
2022-12-18T08:24:01.093Z,35.90
2022-12-18T08:26:30.955Z,38.47
2022-12-18T08:28:59.462Z,41.38
2022-12-18T08:31:28.191Z,40.60
2022-12-18T08:33:55.327Z,47.92
2022-12-18T08:36:23.093Z,42.15
2022-12-18T08:38:51.237Z,40.13
2022-12-18T08:41:19.281Z,46.85
2022-12-18T08:44:04.967Z,44.15
2022-12-18T08:46:41.230Z,39.90
2022-12-18T08:49:12.372Z,36.20
2022-12-18T08:51:41.147Z,39.70
2022-12-18T08:54:08.035Z,41.83
2022-12-18T08:56:35.098Z,44.60
2022-12-18T08:59:02.093Z,38.15
2022-12-18T09:01:29.340Z,40.45
2022-12-18T09:03:56.298Z,42.85
2022-12-18T09:06:23.893Z,45.60
2022-12-18T09:08:50.832Z,39.33
2022-12-18T09:11:26.920Z,43.70
2022-12-18T09:13:55.129Z,43.47
2022-12-18T09:16:27.386Z,43.38
2022-12-18T09:19:02.407Z,45.20
2022-12-18T09:23:57.987Z,38.70
2022-12-18T09:26:26.401Z,40.53
2022-12-18T09:28:53.004Z,40.72
2022-12-18T09:31:22.605Z,48.17
2022-12-18T09:33:49.365Z,40.03
2022-12-18T09:36:18.598Z,39.08
2022-12-18T09:38:45.412Z,41.97
2022-12-18T09:41:40.102Z,40.65
2022-12-18T09:44:12.825Z,44.97
2022-12-18T09:46:45.079Z,39.13
2022-12-18T09:49:20.143Z,41.55
2022-12-18T09:51:50.661Z,45.47
2022-12-18T09:54:26.910Z,43.80
2022-12-18T09:56:54.651Z,45.13
2022-12-18T09:59:34.102Z,41.63
2022-12-18T10:02:03.951Z,41.55
2022-12-18T10:04:33.081Z,38.13
2022-12-18T10:07:24.504Z,38.67
2022-12-18T10:10:14.148Z,40.80
2022-12-18T10:13:04.720Z,48.92
2022-12-18T10:15:48.387Z,45.65
2022-12-18T10:18:58.664Z,45.40
2022-12-18T10:21:49.078Z,40.90
2022-12-18T10:24:49.318Z,37.95
2022-12-18T10:27:23.251Z,42.72
2022-12-18T10:29:50.933Z,35.20
2022-12-18T10:32:24.080Z,40.75
2022-12-18T10:35:01.102Z,68.50
2022-12-18T10:37:51.219Z,40.40
2022-12-18T10:40:31.866Z,40.80
2022-12-18T10:43:15.980Z,44.95
2022-12-18T10:46:04.395Z,40.40
2022-12-18T10:48:40.528Z,44.63
2022-12-18T10:51:40.607Z,40.88
2022-12-18T10:54:21.240Z,38.25
2022-12-18T10:57:23.060Z,37.50
2022-12-18T11:00:00.682Z,43.67
2022-12-18T11:02:39.212Z,41.92
2022-12-18T11:05:30.080Z,38.50
2022-12-18T11:08:00.857Z,40.97
2022-12-18T11:10:45.951Z,40.35
2022-12-18T11:13:36.529Z,40.75
2022-12-18T11:16:26.221Z,41.40
2022-12-18T11:19:08.391Z,36.10
2022-12-18T11:21:41.627Z,37.95
2022-12-18T11:24:21.772Z,35.10
2022-12-18T11:26:59.931Z,39.47
2022-12-18T11:29:43.245Z,35.35
2022-12-18T11:32:19.286Z,35.72
2022-12-18T11:34:52.524Z,37.15
2022-12-18T11:37:23.109Z,40.80
2022-12-18T11:40:01.678Z,32.42
2022-12-18T11:42:47.152Z,36.13
2022-12-18T11:45:14.072Z,37.72
2022-12-18T11:47:50.090Z,44.30
2022-12-18T11:50:34.840Z,38.78
2022-12-18T11:53:06.435Z,42.90
2022-12-18T11:55:57.844Z,31.10
2022-12-18T11:58:57.313Z,32.22
2022-12-18T12:01:44.498Z,30.55
2022-12-18T12:04:33.788Z,33.17
2022-12-18T12:07:17.865Z,31.63
2022-12-18T12:09:53.942Z,30.58
2022-12-18T12:12:56.769Z,30.42
2022-12-18T12:15:47.405Z,33.83
2022-12-18T12:19:04.302Z,37.35
2022-12-18T12:22:03.504Z,36.42
2022-12-18T12:27:48.088Z,33.95
2022-12-18T12:30:54.877Z,38.90
2022-12-18T12:33:51.686Z,35.33
2022-12-18T12:36:50.595Z,33.92
2022-12-18T12:40:15.287Z,32.60
2022-12-18T12:47:15.482Z,34.50
2022-12-18T12:49:52.127Z,34.75
2022-12-18T12:52:50.026Z,40.97
2022-12-18T12:55:35.589Z,37.63
2022-12-18T12:58:29.337Z,41.35
2022-12-18T13:01:29.868Z,43.83
2022-12-18T13:04:28.414Z,38.53
2022-12-18T13:07:11.698Z,36.35
2022-12-18T13:10:19.212Z,37.90
2022-12-18T13:13:09.171Z,38.55
2022-12-18T13:16:09.378Z,37.42
2022-12-18T13:18:36.475Z,38.47
2022-12-18T13:21:18.563Z,34.15
2022-12-18T13:23:46.138Z,34.65
2022-12-18T13:26:17.102Z,39.55
2022-12-18T13:28:49.771Z,31.30
2022-12-18T13:31:42.355Z,35.70
2022-12-18T13:34:33.509Z,37.88
2022-12-18T13:37:39.698Z,34.75
2022-12-18T13:40:48.892Z,32.95
2022-12-18T13:43:28.456Z,28.17
2022-12-18T13:46:32.939Z,32.15
2022-12-18T13:49:15.033Z,32.65
2022-12-18T13:51:45.077Z,31.42
2022-12-18T13:54:25.318Z,31.80
2022-12-18T13:56:52.201Z,35.22
2022-12-18T13:59:22.984Z,32.83
2022-12-18T14:02:02.909Z,28.27
2022-12-18T14:04:33.894Z,30.42
2022-12-18T14:07:25.112Z,34.95
2022-12-18T14:10:06.432Z,35.42
2022-12-18T14:12:57.893Z,33.03
2022-12-18T14:15:27.991Z,33.38
2022-12-18T14:18:23.024Z,29.85
2022-12-18T14:20:53.338Z,31.10
2022-12-18T14:23:43.707Z,28.23
2022-12-18T14:26:24.761Z,31.13
2022-12-18T14:28:52.009Z,28.88
2022-12-18T14:31:26.502Z,30.08
2022-12-18T14:33:56.906Z,27.77
2022-12-18T14:36:27.358Z,33.00
2022-12-18T14:38:58.524Z,31.83
2022-12-18T14:41:26.557Z,30.23
2022-12-18T14:43:55.489Z,28.50
2022-12-18T14:46:28.418Z,30.17
2022-12-18T14:48:57.511Z,32.33
2022-12-18T14:51:29.535Z,32.58
2022-12-18T14:54:08.958Z,33.45
2022-12-18T14:56:37.873Z,36.55
2022-12-18T14:59:23.825Z,36.15
2022-12-18T15:02:14.709Z,34.95
2022-12-18T15:04:44.720Z,34.65
2022-12-18T15:07:23.216Z,33.38
2022-12-18T15:10:13.772Z,29.08
2022-12-18T15:13:00.667Z,38.90
2022-12-18T15:15:43.448Z,38.30
2022-12-18T15:18:13.050Z,35.70
2022-12-18T15:20:49.246Z,35.67
2022-12-18T15:23:25.551Z,33.00
2022-12-18T15:26:07.345Z,34.80
2022-12-18T15:28:44.188Z,39.38
2022-12-18T15:31:12.060Z,38.45
2022-12-18T15:33:45.163Z,37.65
2022-12-18T15:36:17.592Z,37.50
2022-12-18T15:38:49.595Z,40.08
2022-12-18T15:41:22.954Z,42.05
2022-12-18T15:43:53.317Z,39.53
2022-12-18T15:46:22.416Z,38.20
2022-12-18T15:49:01.728Z,38.25
2022-12-18T15:51:39.406Z,37.30
2022-12-18T15:54:12.268Z,30.02
2022-12-18T15:56:57.558Z,29.33
2022-12-18T15:59:25.493Z,33.10
2022-12-18T16:01:55.682Z,32.05
2022-12-18T16:04:23.366Z,33.47
2022-12-18T16:07:14.943Z,29.58
2022-12-18T16:09:39.906Z,40.38
2022-12-18T16:12:21.870Z,44.85
2022-12-18T16:14:51.222Z,35.25
2022-12-18T16:17:18.453Z,47.28
2022-12-18T16:19:45.677Z,46.25
2022-12-18T16:22:30.890Z,48.42
2022-12-18T16:25:00.693Z,47.38
2022-12-18T16:27:27.302Z,37.00
2022-12-18T16:29:54.070Z,43.72
2022-12-18T16:32:23.342Z,37.53
2022-12-18T16:34:50.452Z,35.60
2022-12-18T16:37:17.458Z,41.70
2022-12-18T16:39:44.272Z,32.63
2022-12-18T16:42:17.584Z,37.08
2022-12-18T16:44:45.659Z,36.97
2022-12-18T16:47:14.939Z,32.45
2022-12-18T16:49:42.483Z,38.45
2022-12-18T16:52:09.636Z,41.95
2022-12-18T16:54:36.948Z,34.45
2022-12-18T16:57:05.479Z,40.50
2022-12-18T16:59:35.575Z,50.00
2022-12-18T17:02:23.765Z,44.17
2022-12-18T17:04:57.335Z,53.85
2022-12-18T17:07:25.696Z,47.03
2022-12-18T17:09:54.177Z,49.38
2022-12-18T17:12:21.774Z,52.95
2022-12-18T17:14:51.473Z,52.40
2022-12-18T17:17:21.219Z,39.95
2022-12-18T17:22:17.015Z,40.97
2022-12-18T17:24:43.826Z,45.15
2022-12-18T17:27:10.816Z,53.22
2022-12-18T17:29:41.153Z,44.97
2022-12-18T17:32:12.501Z,42.63
2022-12-18T17:34:39.402Z,47.38
2022-12-18T17:37:10.331Z,59.63
2022-12-18T17:42:08.385Z,47.90
2022-12-18T17:44:40.208Z,56.53
2022-12-18T17:47:07.877Z,57.83
2022-12-18T17:49:34.776Z,52.17
2022-12-18T17:52:01.534Z,49.45
2022-12-18T17:54:28.631Z,46.05
2022-12-18T17:56:55.518Z,40.92
2022-12-18T17:59:22.761Z,41.22
2022-12-18T18:01:49.762Z,41.47
2022-12-18T18:04:19.353Z,46.15
2022-12-18T18:06:46.110Z,40.55
2022-12-18T18:09:16.097Z,37.15
2022-12-18T18:12:05.486Z,39.15
2022-12-18T18:14:33.145Z,40.80
2022-12-18T18:17:04.273Z,47.55
2022-12-18T18:21:58.298Z,41.60
2022-12-18T18:24:25.949Z,40.10
2022-12-18T18:26:52.739Z,40.38
2022-12-18T18:29:23.064Z,41.55
2022-12-18T18:31:50.646Z,38.70
2022-12-18T18:34:23.136Z,43.78
2022-12-18T18:36:50.272Z,38.42
2022-12-18T18:39:18.082Z,44.17
2022-12-18T18:41:48.344Z,40.85
2022-12-18T18:44:16.423Z,41.45
2022-12-18T18:46:46.550Z,44.92
2022-12-18T18:49:17.075Z,38.58
2022-12-18T18:51:49.173Z,47.67
2022-12-18T18:54:15.890Z,46.53
2022-12-18T18:57:18.884Z,44.47
2022-12-18T18:59:31.562Z,42.45
2022-12-18T19:02:00.146Z,46.90
2022-12-18T19:04:32.238Z,43.78
2022-12-18T19:06:59.296Z,42.55
2022-12-18T19:09:26.410Z,43.28
2022-12-18T19:12:12.110Z,41.20
2022-12-18T19:14:39.140Z,50.63
2022-12-18T19:17:07.555Z,46.78
2022-12-18T19:19:39.749Z,44.70
2022-12-18T19:22:07.113Z,46.58
2022-12-18T19:24:33.989Z,49.45
2022-12-18T19:27:00.770Z,47.30
2022-12-18T19:29:27.810Z,43.95
2022-12-18T19:31:54.653Z,45.15
2022-12-18T19:34:21.390Z,43.60
2022-12-18T19:36:48.068Z,44.58
2022-12-18T19:39:17.872Z,44.88
2022-12-18T19:44:15.589Z,44.15
2022-12-18T19:46:44.757Z,43.10
2022-12-18T19:49:11.947Z,42.75
2022-12-18T19:51:44.098Z,39.30
2022-12-18T19:54:16.189Z,40.08
2022-12-18T19:56:44.262Z,42.95
2022-12-18T19:59:10.943Z,44.80
2022-12-18T20:01:43.220Z,40.20
2022-12-18T20:04:10.421Z,39.35
2022-12-18T20:06:47.947Z,43.13
2022-12-18T20:09:15.010Z,39.60
2022-12-18T20:11:42.542Z,38.17
2022-12-18T20:14:13.023Z,37.13
2022-12-18T20:16:40.481Z,36.90
2022-12-18T20:19:07.929Z,40.25
2022-12-18T20:21:35.572Z,36.15
2022-12-18T20:24:02.470Z,41.40
2022-12-18T20:26:29.423Z,37.25
2022-12-18T20:28:56.664Z,39.03
2022-12-18T20:31:24.629Z,34.90
2022-12-18T20:33:52.137Z,32.08
2022-12-18T20:36:24.632Z,38.75
2022-12-18T20:38:54.731Z,37.78
2022-12-18T20:41:24.911Z,36.85
2022-12-18T20:43:54.412Z,35.17
2022-12-18T20:46:24.568Z,35.03
2022-12-18T20:48:51.851Z,36.08
2022-12-18T20:51:21.685Z,41.38
2022-12-18T20:53:48.741Z,37.20
2022-12-18T20:56:21.549Z,33.42
2022-12-18T20:58:49.679Z,31.70
2022-12-18T21:01:21.348Z,34.63
2022-12-18T21:03:51.415Z,31.80
2022-12-18T21:06:20.710Z,37.05
2022-12-18T21:08:48.362Z,32.50
2022-12-18T21:11:35.543Z,33.67
2022-12-18T21:14:05.276Z,32.03
2022-12-18T21:16:32.399Z,38.78
2022-12-18T21:18:59.594Z,35.63
2022-12-18T21:21:27.198Z,32.78
2022-12-18T21:23:56.939Z,38.30
2022-12-18T21:26:26.374Z,35.88
2022-12-18T21:28:58.134Z,36.40
2022-12-18T21:31:34.574Z,30.50
2022-12-18T21:34:07.576Z,32.45
2022-12-18T21:36:35.187Z,36.95
2022-12-18T21:39:04.612Z,35.83
2022-12-18T21:41:52.328Z,34.03
2022-12-18T21:44:22.339Z,33.72
2022-12-18T21:46:58.373Z,35.88
2022-12-18T21:49:33.687Z,33.78
2022-12-18T21:52:01.159Z,33.27
2022-12-18T21:54:29.022Z,35.35
2022-12-18T21:57:07.068Z,30.85
2022-12-18T21:59:41.411Z,34.00
2022-12-18T22:02:13.000Z,30.33
2022-12-18T22:04:42.560Z,35.70
2022-12-18T22:07:09.755Z,38.00
2022-12-18T22:09:38.275Z,33.83
2022-12-18T22:12:05.995Z,33.63
2022-12-18T22:14:32.789Z,37.00
2022-12-18T22:16:59.553Z,36.78
2022-12-18T22:19:26.949Z,33.55
2022-12-18T22:21:54.450Z,36.55
2022-12-18T22:24:26.541Z,36.90
2022-12-18T22:27:01.750Z,32.70
2022-12-18T22:29:48.047Z,34.55
2022-12-18T22:32:23.776Z,35.13
2022-12-18T22:35:07.279Z,31.20
2022-12-18T22:37:37.358Z,32.83
2022-12-18T22:40:06.016Z,32.97
2022-12-18T22:42:34.370Z,33.90
2022-12-18T22:45:01.090Z,33.83
2022-12-18T22:47:30.821Z,34.78
2022-12-18T22:49:58.313Z,32.20
2022-12-18T22:52:25.609Z,34.00
2022-12-18T22:54:54.081Z,37.67
2022-12-18T22:57:22.430Z,37.95
2022-12-18T22:59:50.459Z,34.53
2022-12-18T23:02:19.046Z,37.65
2022-12-18T23:04:47.726Z,35.30
2022-12-18T23:07:15.834Z,43.08
2022-12-18T23:09:42.957Z,37.97
2022-12-18T23:12:16.338Z,36.88
2022-12-18T23:14:43.420Z,37.40
2022-12-18T23:17:10.223Z,34.30
2022-12-18T23:19:44.024Z,40.03
2022-12-18T23:22:14.020Z,35.17
2022-12-18T23:24:40.881Z,39.83
2022-12-18T23:27:11.567Z,33.08
2022-12-18T23:29:41.928Z,37.95
2022-12-18T23:32:10.799Z,39.05
2022-12-18T23:34:39.489Z,38.28
2022-12-18T23:37:06.333Z,39.53
2022-12-18T23:39:32.977Z,41.22
2022-12-18T23:42:00.233Z,35.47
2022-12-18T23:44:27.420Z,37.05
2022-12-18T23:46:54.783Z,38.03
2022-12-18T23:49:21.604Z,37.75
2022-12-18T23:51:48.748Z,37.75
2022-12-18T23:54:16.140Z,35.85
2022-12-18T23:56:43.011Z,42.15
2022-12-18T23:59:09.834Z,35.38
